Time;durP1;ratioP1;P1;durP2;ratioP2;P2;SDS_P1;SDS_P2;PMS_P1;PMS_P2;Temp;Humidity;BMP_temperature;BMP_pressure;BME280_temperature;BME280_humidity;BME280_pressure;Samples;Min_cycle;Max_cycle;Signal;HPM_P1;HPM_P2
2022/02/26 00:00:44;;;;;;;4.38;1.38;;;7.60;55.30;;;;;;4991548;28;20050;-71
2022/02/26 00:03:12;;;;;;;3.40;0.90;;;7.50;55.30;;;;;;5007764;28;20045;-71
2022/02/26 00:05:41;;;;;;;5.22;1.30;;;7.30;55.90;;;;;;5004803;28;20056;-71
2022/02/26 00:08:09;;;;;;;4.93;1.10;;;7.40;55.70;;;;;;4971897;28;20041;-71
2022/02/26 00:10:36;;;;;;;3.72;1.10;;;7.50;55.50;;;;;;4992219;28;20069;-70
2022/02/26 00:13:03;;;;;;;2.17;0.65;;;7.40;55.60;;;;;;4988770;28;20483;-71
2022/02/26 00:15:30;;;;;;;2.63;0.88;;;7.30;55.80;;;;;;4991690;28;21085;-71
2022/02/26 00:18:00;;;;;;;4.10;0.82;;;7.30;55.70;;;;;;4989327;28;20038;-71
2022/02/26 00:20:27;;;;;;;2.78;0.75;;;7.30;56.20;;;;;;5005634;28;20042;-71
2022/02/26 00:22:54;;;;;;;1.63;0.43;;;7.30;56.20;;;;;;4991778;28;20125;-71
2022/02/26 00:25:21;;;;;;;5.25;0.80;;;7.30;56.00;;;;;;4990036;28;20034;-71
2022/02/26 00:27:48;;;;;;;3.15;0.70;;;7.30;55.90;;;;;;4991615;28;20081;-71
2022/02/26 00:30:16;;;;;;;2.25;1.00;;;7.40;55.60;;;;;;4987798;28;20038;-71
2022/02/26 00:32:43;;;;;;;3.83;0.95;;;7.40;55.40;;;;;;4990029;28;20672;-71
2022/02/26 00:35:10;;;;;;;7.72;1.25;;;7.30;55.60;;;;;;4992150;28;20600;-72
2022/02/26 00:37:37;;;;;;;6.03;1.30;;;7.20;56.00;;;;;;4987019;28;20208;-71
2022/02/26 00:40:05;;;;;;;2.55;0.90;;;7.20;55.80;;;;;;4991177;28;20529;-71
2022/02/26 00:42:32;;;;;;;4.53;1.55;;;7.10;56.10;;;;;;4989880;28;20400;-71
2022/02/26 00:44:59;;;;;;;6.90;2.10;;;7.10;56.20;;;;;;4990241;28;20617;-71
2022/02/26 00:47:27;;;;;;;7.78;1.88;;;7.30;55.40;;;;;;4971496;28;20084;-71
2022/02/26 00:49:55;;;;;;;6.13;2.17;;;7.30;55.40;;;;;;4991682;28;20042;-71
2022/02/26 00:52:28;;;;;;;9.40;2.63;;;7.30;55.40;;;;;;4990873;28;20034;-71
2022/02/26 00:54:56;;;;;;;6.40;2.40;;;7.30;55.00;;;;;;4989069;28;20038;-71
2022/02/26 00:57:23;;;;;;;5.95;2.38;;;7.30;55.20;;;;;;4991454;28;20124;-71
2022/02/26 00:59:51;;;;;;;3.83;1.58;;;7.40;54.90;;;;;;5006405;28;20042;-71
2022/02/26 01:02:19;;;;;;;3.35;1.27;;;7.30;55.00;;;;;;5009151;28;20189;-71
2022/02/26 01:04:48;;;;;;;3.40;1.38;;;7.20;55.40;;;;;;4986209;28;20049;-71
2022/02/26 01:07:15;;;;;;;4.63;1.40;;;7.10;55.60;;;;;;4992024;28;20042;-71
2022/02/26 01:09:42;;;;;;;4.00;1.05;;;7.30;55.30;;;;;;4991740;28;20153;-71
2022/02/26 01:12:11;;;;;;;4.65;1.13;;;7.20;55.70;;;;;;4989758;28;20197;-71
2022/02/26 01:14:39;;;;;;;2.65;0.73;;;7.20;55.50;;;;;;4988990;28;20132;-71
2022/02/26 01:17:08;;;;;;;3.78;1.40;;;7.40;55.30;;;;;;4991046;28;20818;-71
2022/02/26 01:19:36;;;;;;;4.45;1.50;;;7.30;55.30;;;;;;4990571;28;20124;-71
2022/02/26 01:22:04;;;;;;;3.78;1.10;;;7.20;55.60;;;;;;4989488;28;20053;-71
2022/02/26 01:24:31;;;;;;;3.92;1.20;;;7.10;55.90;;;;;;5005220;28;20129;-71
2022/02/26 01:26:59;;;;;;;3.63;1.40;;;7.00;56.20;;;;;;4991028;28;20046;-71
2022/02/26 01:29:27;;;;;;;3.85;1.30;;;6.90;56.40;;;;;;4988555;28;20129;-71
2022/02/26 01:31:54;;;;;;;4.85;1.65;;;7.00;56.50;;;;;;4991856;28;20050;-71
2022/02/26 01:34:22;;;;;;;6.07;1.40;;;7.00;56.30;;;;;;5006391;28;20685;-71
2022/02/26 01:36:49;;;;;;;6.88;1.90;;;7.00;56.10;;;;;;4992144;28;20061;-71
2022/02/26 01:39:19;;;;;;;6.18;1.35;;;7.00;56.10;;;;;;4990828;28;20125;-71
2022/02/26 01:41:46;;;;;;;5.57;1.75;;;7.00;56.20;;;;;;4992073;28;20456;-71
2022/02/26 01:44:13;;;;;;;5.40;1.35;;;6.90;56.40;;;;;;4990295;28;20073;-71
2022/02/26 01:46:40;;;;;;;4.90;1.00;;;7.00;56.10;;;;;;4988132;28;20397;-71
2022/02/26 01:49:08;;;;;;;6.13;1.50;;;7.00;55.60;;;;;;5003976;28;20046;-71
2022/02/26 01:51:36;;;;;;;4.80;1.40;;;6.90;56.10;;;;;;4993142;28;20066;-71
2022/02/26 01:54:05;;;;;;;4.40;1.23;;;6.90;56.10;;;;;;5010709;28;20046;-71
2022/02/26 01:56:33;;;;;;;4.25;2.20;;;7.00;55.70;;;;;;4993535;28;20651;-71
2022/02/26 01:59:00;;;;;;;6.35;2.35;;;7.00;55.60;;;;;;4993077;28;20107;-71
2022/02/26 02:01:27;;;;;;;6.80;2.40;;;6.90;55.60;;;;;;4996322;28;20120;-71
2022/02/26 02:03:55;;;;;;;7.68;2.38;;;6.80;56.30;;;;;;4988728;28;20044;-71
2022/02/26 02:06:22;;;;;;;4.88;1.73;;;6.80;56.30;;;;;;4996590;28;20148;-71
2022/02/26 02:08:49;;;;;;;6.57;1.77;;;6.70;56.40;;;;;;4993074;28;20101;-71
2022/02/26 02:11:17;;;;;;;6.25;1.70;;;6.60;56.70;;;;;;4995666;28;20052;-71
2022/02/26 02:13:44;;;;;;;4.95;1.65;;;6.60;57.00;;;;;;4995979;28;20452;-71
2022/02/26 02:16:12;;;;;;;3.75;1.40;;;6.50;57.20;;;;;;4995101;28;20518;-71
2022/02/26 02:18:42;;;;;;;3.47;1.30;;;6.40;57.20;;;;;;4993768;28;20097;-71
2022/02/26 02:21:09;;;;;;;7.20;1.23;;;6.40;57.50;;;;;;4990170;28;20051;-71
2022/02/26 02:23:36;;;;;;;3.03;0.80;;;6.30;57.80;;;;;;4991985;28;20152;-71
2022/02/26 02:26:03;;;;;;;4.05;1.15;;;6.30;58.10;;;;;;4994133;28;20159;-70
2022/02/26 02:28:33;;;;;;;4.47;1.50;;;6.30;58.90;;;;;;4991432;28;20038;-71
2022/02/26 02:31:00;;;;;;;8.30;2.42;;;6.30;58.40;;;;;;4992500;28;20078;-71
2022/02/26 02:33:27;;;;;;;4.68;0.98;;;6.20;58.60;;;;;;4995347;28;20099;-71
2022/02/26 02:35:54;;;;;;;4.22;1.40;;;6.20;58.60;;;;;;4991533;28;20166;-71
2022/02/26 02:38:21;;;;;;;3.90;1.40;;;6.50;57.80;;;;;;4991136;28;20502;-71
2022/02/26 02:40:50;;;;;;;5.90;1.17;;;6.60;57.20;;;;;;4995161;28;20493;-71
2022/02/26 02:43:19;;;;;;;10.07;2.10;;;6.70;56.70;;;;;;4994510;28;20041;-71
2022/02/26 02:45:46;;;;;;;6.93;2.90;;;6.40;57.40;;;;;;4994399;28;20116;-71
2022/02/26 02:48:15;;;;;;;4.85;2.03;;;6.40;57.90;;;;;;4990338;28;20057;-71
2022/02/26 02:50:43;;;;;;;3.42;1.02;;;6.40;57.70;;;;;;4991505;28;20552;-71
2022/02/26 02:53:10;;;;;;;2.65;0.77;;;6.40;58.20;;;;;;5006654;28;20865;-71
2022/02/26 02:55:37;;;;;;;4.60;0.70;;;6.30;59.40;;;;;;5010580;28;21326;-71
2022/02/26 02:58:04;;;;;;;1.67;0.38;;;6.30;58.50;;;;;;5009095;28;20107;-71
2022/02/26 03:00:31;;;;;;;1.65;0.50;;;6.30;58.40;;;;;;4995478;28;20053;-71
2022/02/26 03:02:58;;;;;;;1.70;0.50;;;6.40;58.10;;;;;;4990829;28;20045;-71
2022/02/26 03:05:26;;;;;;;2.55;0.50;;;6.40;58.20;;;;;;4975454;28;20050;-71
2022/02/26 03:07:53;;;;;;;3.55;1.10;;;6.50;58.10;;;;;;4993216;28;20109;-71
2022/02/26 03:10:21;;;;;;;2.53;0.50;;;6.50;58.20;;;;;;4993184;28;20556;-70
2022/02/26 03:12:52;;;;;;;1.67;0.70;;;6.60;57.90;;;;;;4993242;28;20065;-71
2022/02/26 03:15:22;;;;;;;2.15;0.77;;;6.50;57.50;;;;;;4976722;28;20102;-71
2022/02/26 03:17:50;;;;;;;3.65;1.20;;;6.60;57.80;;;;;;5009652;28;20694;-71
2022/02/26 03:20:18;;;;;;;3.58;0.55;;;6.70;57.70;;;;;;4993150;28;20153;-71
2022/02/26 03:22:46;;;;;;;3.05;0.68;;;6.70;57.90;;;;;;5008018;28;20033;-71
2022/02/26 03:25:14;;;;;;;3.30;1.08;;;6.70;57.80;;;;;;5009106;28;20065;-71
2022/02/26 03:27:41;;;;;;;5.18;1.55;;;6.70;57.90;;;;;;4992940;28;20037;-71
2022/02/26 03:30:09;;;;;;;5.95;1.67;;;6.60;57.80;;;;;;5008696;28;20069;-71
2022/02/26 03:32:38;;;;;;;4.47;1.45;;;6.60;57.60;;;;;;4990356;28;20184;-71
2022/02/26 03:35:05;;;;;;;3.08;0.88;;;6.60;58.10;;;;;;4992385;28;20038;-71
2022/02/26 03:37:34;;;;;;;3.60;0.90;;;6.50;57.80;;;;;;5005518;28;20058;-71
2022/02/26 03:40:03;;;;;;;2.25;0.68;;;6.60;57.80;;;;;;4977459;28;20085;-70
2022/02/26 03:42:29;;;;;;;2.63;0.80;;;6.60;57.30;;;;;;4990159;28;20124;-71
2022/02/26 03:44:56;;;;;;;2.25;0.60;;;6.70;57.20;;;;;;4992958;28;20061;-71
2022/02/26 03:47:24;;;;;;;2.40;0.73;;;6.70;57.20;;;;;;4993136;28;20087;-71
2022/02/26 03:49:51;;;;;;;2.45;0.60;;;6.70;57.60;;;;;;4991104;28;20087;-71
2022/02/26 03:52:25;;;;;;;2.40;0.70;;;6.80;57.00;;;;;;4991871;28;20073;-71
2022/02/26 03:54:54;;;;;;;3.08;1.40;;;6.80;57.00;;;;;;4992944;28;20081;-71
2022/02/26 03:57:23;;;;;;;3.03;0.98;;;6.70;57.00;;;;;;4995761;28;20052;-71
2022/02/26 03:59:50;;;;;;;1.90;1.00;;;6.70;57.90;;;;;;4992985;28;20049;-71
2022/02/26 04:02:17;;;;;;;4.72;1.52;;;6.70;57.80;;;;;;4992058;28;20204;-71
2022/02/26 04:04:44;;;;;;;5.30;1.58;;;6.70;57.00;;;;;;5005513;28;20165;-71
2022/02/26 04:07:11;;;;;;;3.28;1.15;;;6.60;57.50;;;;;;4975599;28;20045;-71
2022/02/26 04:09:38;;;;;;;3.75;1.83;;;6.60;57.90;;;;;;5009769;28;20555;-71
2022/02/26 04:12:06;;;;;;;5.03;2.38;;;6.60;57.60;;;;;;4991655;28;20060;-71
2022/02/26 04:14:33;;;;;;;5.18;2.58;;;6.50;57.20;;;;;;4990353;28;20054;-71
2022/02/26 04:17:00;;;;;;;4.78;2.13;;;6.70;57.10;;;;;;4992179;28;20046;-71
2022/02/26 04:19:27;;;;;;;2.83;1.20;;;6.70;57.70;;;;;;4993271;28;20041;-71
2022/02/26 04:21:54;;;;;;;2.50;1.10;;;6.50;58.00;;;;;;4993605;28;20065;-71
2022/02/26 04:24:22;;;;;;;3.72;1.20;;;6.50;58.20;;;;;;4992445;28;20030;-71
2022/02/26 04:26:49;;;;;;;5.05;1.50;;;6.50;59.60;;;;;;4991008;28;20505;-70
2022/02/26 04:29:16;;;;;;;3.85;1.25;;;6.50;59.20;;;;;;4992602;28;20053;-71
2022/02/26 04:31:43;;;;;;;5.10;1.35;;;6.50;59.20;;;;;;4992182;28;20053;-71
2022/02/26 04:34:10;;;;;;;4.57;1.60;;;6.30;60.00;;;;;;4991256;28;20742;-71
2022/02/26 04:36:37;;;;;;;4.38;1.70;;;6.40;60.10;;;;;;4991970;28;20072;-71
2022/02/26 04:39:04;;;;;;;3.58;1.25;;;6.20;60.60;;;;;;4975957;28;20509;-71
2022/02/26 04:41:32;;;;;;;5.35;1.65;;;6.20;60.60;;;;;;4986975;28;20128;-71
2022/02/26 04:43:59;;;;;;;3.50;1.42;;;6.30;59.80;;;;;;4992348;28;20055;-71
2022/02/26 04:46:26;;;;;;;3.05;1.00;;;6.30;59.90;;;;;;4992246;28;20038;-71
2022/02/26 04:48:55;;;;;;;4.03;1.65;;;6.30;60.80;;;;;;5007508;28;20049;-71
2022/02/26 04:51:22;;;;;;;2.53;0.82;;;6.20;61.00;;;;;;5007365;28;20057;-71
2022/02/26 04:53:49;;;;;;;2.75;1.10;;;6.30;60.30;;;;;;4992706;28;20069;-71
2022/02/26 04:56:16;;;;;;;3.20;1.02;;;6.20;61.90;;;;;;5006256;28;20050;-71
2022/02/26 04:58:43;;;;;;;4.22;1.50;;;6.20;60.80;;;;;;4989192;28;20041;-71
2022/02/26 05:01:10;;;;;;;4.53;1.90;;;6.10;62.70;;;;;;4991195;28;20532;-71
2022/02/26 05:03:37;;;;;;;2.80;1.00;;;6.00;62.30;;;;;;5006155;28;20470;-70
2022/02/26 05:06:04;;;;;;;3.65;1.05;;;5.90;61.00;;;;;;4991893;28;21104;-72
2022/02/26 05:08:31;;;;;;;4.35;1.50;;;5.90;61.30;;;;;;4992689;28;20069;-71
2022/02/26 05:11:01;;;;;;;2.75;0.80;;;6.00;61.70;;;;;;4975520;28;20515;-71
2022/02/26 05:13:28;;;;;;;4.07;1.15;;;6.10;60.90;;;;;;5005145;28;20093;-71
2022/02/26 05:15:55;;;;;;;3.08;1.05;;;6.10;61.40;;;;;;4991391;28;20156;-71
2022/02/26 05:18:22;;;;;;;4.57;1.13;;;6.00;62.50;;;;;;4990357;28;20057;-71
2022/02/26 05:20:49;;;;;;;3.38;1.08;;;6.00;61.60;;;;;;4990154;28;20092;-71
2022/02/26 05:23:17;;;;;;;3.70;1.27;;;6.00;62.00;;;;;;4999871;28;20070;-71
2022/02/26 05:25:44;;;;;;;6.72;2.00;;;6.00;61.70;;;;;;4990749;28;20105;-71
2022/02/26 05:28:11;;;;;;;11.38;3.20;;;6.10;60.90;;;;;;4990090;28;20042;-71
2022/02/26 05:30:38;;;;;;;11.10;3.85;;;6.00;61.30;;;;;;4990162;28;20053;-71
2022/02/26 05:33:07;;;;;;;15.15;4.03;;;5.90;60.90;;;;;;4992762;28;20498;-71
2022/02/26 05:35:34;;;;;;;8.95;3.47;;;6.00;60.70;;;;;;4990677;28;20038;-71
2022/02/26 05:38:02;;;;;;;5.45;1.92;;;5.90;60.30;;;;;;4991740;28;20648;-71
2022/02/26 05:40:29;;;;;;;8.05;2.22;;;6.00;60.60;;;;;;5007487;28;20437;-71
2022/02/26 05:42:56;;;;;;;6.05;2.45;;;6.00;60.60;;;;;;4973080;28;20125;-71
2022/02/26 05:45:23;;;;;;;5.57;2.17;;;5.90;60.80;;;;;;4991727;28;20070;-71
2022/02/26 05:47:50;;;;;;;3.72;1.80;;;5.90;60.40;;;;;;4990143;28;20514;-71
2022/02/26 05:50:17;;;;;;;3.47;1.77;;;6.00;60.20;;;;;;4991391;28;20074;-71
2022/02/26 05:52:44;;;;;;;4.65;1.60;;;5.90;60.50;;;;;;4990833;28;20097;-71
2022/02/26 05:55:13;;;;;;;5.13;1.98;;;5.80;60.40;;;;;;4991416;28;20038;-71
2022/02/26 05:57:40;;;;;;;5.43;2.30;;;5.80;60.50;;;;;;4991527;28;20061;-71
2022/02/26 06:00:08;;;;;;;6.93;2.90;;;6.00;60.70;;;;;;5007898;28;20092;-71
2022/02/26 06:02:35;;;;;;;7.90;3.28;;;5.90;60.40;;;;;;4988378;28;20926;-71
2022/02/26 06:05:03;;;;;;;5.30;2.88;;;6.00;60.60;;;;;;4988260;28;20053;-71
2022/02/26 06:07:30;;;;;;;5.95;2.50;;;6.20;59.90;;;;;;4990710;28;20121;-71
2022/02/26 06:09:58;;;;;;;8.90;2.63;;;6.30;60.10;;;;;;4991121;28;20923;-71
2022/02/26 06:12:25;;;;;;;8.05;2.50;;;6.20;59.80;;;;;;5006358;28;20125;-70
2022/02/26 06:14:57;;;;;;;5.72;2.42;;;6.00;60.90;;;;;;4988214;28;20128;-71
2022/02/26 06:17:24;;;;;;;5.05;2.60;;;5.90;60.70;;;;;;5006388;28;20114;-71
2022/02/26 06:19:51;;;;;;;5.65;2.38;;;6.00;60.80;;;;;;4989715;28;20445;-71
2022/02/26 06:22:18;;;;;;;7.82;3.00;;;6.00;60.60;;;;;;5006223;28;20042;-71
2022/02/26 06:24:45;;;;;;;11.70;3.85;;;6.00;61.10;;;;;;4993512;28;20057;-70
2022/02/26 06:27:12;;;;;;;10.02;4.15;;;6.00;61.00;;;;;;4991088;28;20065;-71
2022/02/26 06:29:39;;;;;;;9.95;4.38;;;6.00;61.00;;;;;;4992903;28;20046;-71
2022/02/26 06:32:07;;;;;;;9.77;3.70;;;6.20;60.50;;;;;;4988077;28;20100;-71
2022/02/26 06:34:34;;;;;;;7.22;1.98;;;6.30;59.70;;;;;;4992012;28;20041;-71
2022/02/26 06:37:01;;;;;;;5.28;2.45;;;6.40;59.60;;;;;;4991280;28;20070;-71
2022/02/26 06:39:28;;;;;;;7.38;2.72;;;6.30;59.70;;;;;;4988864;28;20088;-71
2022/02/26 06:41:56;;;;;;;9.32;3.38;;;6.30;60.00;;;;;;4995832;28;20125;-71
2022/02/26 06:44:23;;;;;;;7.95;3.58;;;6.30;60.10;;;;;;4993974;28;20046;-71
2022/02/26 06:46:51;;;;;;;8.93;3.53;;;6.20;60.50;;;;;;4993951;28;20038;-71
2022/02/26 06:49:18;;;;;;;8.75;2.90;;;6.50;60.60;;;;;;4995451;28;20200;-72
2022/02/26 06:51:46;;;;;;;8.65;3.30;;;6.40;59.90;;;;;;4993187;28;20073;-71
2022/02/26 06:54:13;;;;;;;8.85;3.60;;;6.30;59.80;;;;;;4992714;28;20057;-71
2022/02/26 06:56:40;;;;;;;5.00;2.55;;;6.30;60.20;;;;;;4994376;28;20504;-71
2022/02/26 06:59:07;;;;;;;6.60;2.42;;;6.30;60.50;;;;;;4973419;28;21035;-71
2022/02/26 07:01:34;;;;;;;6.93;2.80;;;6.30;60.50;;;;;;5003095;28;20050;-71
2022/02/26 07:04:02;;;;;;;6.90;3.00;;;6.30;60.40;;;;;;5007277;28;20049;-70
2022/02/26 07:06:29;;;;;;;7.45;2.45;;;6.40;59.70;;;;;;5008336;28;20050;-71
2022/02/26 07:08:56;;;;;;;6.25;2.58;;;6.50;59.30;;;;;;4994835;28;20037;-71
2022/02/26 07:11:23;;;;;;;5.68;2.80;;;6.50;59.30;;;;;;4996661;28;20104;-71
2022/02/26 07:13:50;;;;;;;9.02;3.08;;;6.60;58.80;;;;;;4992886;28;20073;-71
2022/02/26 07:16:18;;;;;;;7.18;2.25;;;6.70;58.60;;;;;;5009088;28;20050;-71
2022/02/26 07:18:45;;;;;;;4.45;2.15;;;6.70;57.90;;;;;;4992394;28;20565;-71
2022/02/26 07:21:12;;;;;;;5.63;1.52;;;6.70;58.20;;;;;;4995777;28;20106;-71
2022/02/26 07:23:39;;;;;;;3.95;1.73;;;6.70;58.20;;;;;;4993326;28;20060;-71
2022/02/26 07:26:06;;;;;;;4.57;1.48;;;6.90;57.80;;;;;;4995435;28;20041;-71
2022/02/26 07:28:33;;;;;;;7.10;1.70;;;7.00;57.50;;;;;;4993112;28;20592;-71
2022/02/26 07:31:01;;;;;;;4.65;1.45;;;7.00;57.50;;;;;;4993691;28;20586;-72
2022/02/26 07:33:28;;;;;;;5.00;1.42;;;7.10;57.50;;;;;;4996087;28;20042;-71
2022/02/26 07:35:55;;;;;;;4.65;1.88;;;7.20;57.20;;;;;;4994191;28;20039;-71
2022/02/26 07:38:23;;;;;;;5.93;1.92;;;7.20;57.10;;;;;;4993961;28;20064;-71
2022/02/26 07:40:50;;;;;;;7.65;2.47;;;7.10;57.10;;;;;;4982609;28;20041;-71
2022/02/26 07:43:17;;;;;;;7.10;2.47;;;7.20;56.80;;;;;;4996520;28;20061;-71
2022/02/26 07:45:46;;;;;;;6.93;2.00;;;7.10;57.20;;;;;;4994438;28;20042;-71
2022/02/26 07:48:13;;;;;;;4.25;1.90;;;7.10;56.80;;;;;;4992565;28;20505;-71
2022/02/26 07:50:40;;;;;;;3.88;1.60;;;7.20;56.70;;;;;;4994771;28;20156;-72
2022/02/26 07:53:07;;;;;;;3.10;1.02;;;7.30;55.90;;;;;;4992089;28;20052;-71
2022/02/26 07:55:34;;;;;;;6.30;2.67;;;7.30;56.10;;;;;;5008055;28;20061;-71
2022/02/26 07:58:02;;;;;;;5.13;1.40;;;7.20;56.30;;;;;;5007287;28;20065;-71
2022/02/26 08:00:29;;;;;;;4.28;1.60;;;7.30;56.50;;;;;;5006809;28;20173;-71
2022/02/26 08:03:00;;;;;;;5.40;1.63;;;7.40;56.50;;;;;;5003139;28;20042;-71
2022/02/26 08:05:29;;;;;;;4.18;1.10;;;7.40;56.40;;;;;;5007067;28;20067;-71
2022/02/26 08:07:56;;;;;;;6.82;1.50;;;7.60;56.00;;;;;;4989921;28;20057;-71
2022/02/26 08:10:24;;;;;;;3.75;1.40;;;7.60;55.60;;;;;;4993969;28;20759;-72
2022/02/26 08:12:54;;;;;;;4.10;1.52;;;7.60;55.80;;;;;;4993893;28;20169;-72
2022/02/26 08:15:23;;;;;;;7.10;2.13;;;7.60;56.50;;;;;;4991155;28;20448;-71
2022/02/26 08:17:50;;;;;;;7.30;1.92;;;7.70;55.60;;;;;;4991053;28;20057;-71
2022/02/26 08:20:19;;;;;;;8.07;1.85;;;7.70;56.00;;;;;;5001100;28;20049;-72
2022/02/26 08:22:46;;;;;;;3.83;1.55;;;7.90;55.00;;;;;;5006361;28;20042;-72
2022/02/26 08:25:13;;;;;;;2.30;1.27;;;7.90;55.40;;;;;;4993126;28;20049;-72
2022/02/26 08:27:41;;;;;;;4.22;1.45;;;7.90;55.60;;;;;;5006713;28;20465;-71
2022/02/26 08:30:11;;;;;;;3.13;1.20;;;7.90;55.50;;;;;;4992698;28;20039;-71
2022/02/26 08:32:40;;;;;;;3.42;1.10;;;8.00;55.30;;;;;;4993246;28;20473;-71
2022/02/26 08:35:08;;;;;;;3.70;1.35;;;8.00;55.00;;;;;;5009557;28;20096;-72
2022/02/26 08:37:36;;;;;;;6.38;1.65;;;7.90;55.10;;;;;;4991908;28;20159;-71
2022/02/26 08:40:06;;;;;;;5.40;1.30;;;7.90;55.70;;;;;;4994134;28;20045;-71
2022/02/26 08:42:34;;;;;;;5.60;1.92;;;8.00;55.40;;;;;;4991446;28;20044;-72
2022/02/26 08:45:04;;;;;;;6.40;2.38;;;8.00;55.50;;;;;;5007316;28;20804;-72
2022/02/26 08:47:32;;;;;;;4.20;1.48;;;8.20;55.60;;;;;;4989920;28;20041;-72
2022/02/26 08:50:01;;;;;;;5.35;1.58;;;8.30;55.70;;;;;;4993304;28;20105;-71
2022/02/26 08:52:28;;;;;;;5.05;1.63;;;8.40;55.30;;;;;;4991430;28;20058;-71
2022/02/26 08:54:55;;;;;;;3.35;1.23;;;8.60;55.00;;;;;;4991147;28;20121;-72
2022/02/26 08:57:22;;;;;;;3.55;1.42;;;8.70;55.50;;;;;;4989389;28;20141;-72
2022/02/26 08:59:49;;;;;;;3.67;1.50;;;8.90;55.00;;;;;;4993722;28;20058;-72
2022/02/26 09:02:16;;;;;;;7.32;1.85;;;9.10;54.60;;;;;;4989487;28;20120;-71
2022/02/26 09:04:44;;;;;;;6.55;2.05;;;9.20;54.10;;;;;;4991917;28;20042;-71
2022/02/26 09:07:11;;;;;;;4.18;1.55;;;9.20;53.80;;;;;;4993341;28;20038;-71
2022/02/26 09:09:38;;;;;;;4.60;1.85;;;9.30;54.10;;;;;;4992215;28;20045;-72
2022/02/26 09:12:05;;;;;;;3.03;1.27;;;9.50;53.40;;;;;;4975587;28;20115;-71
2022/02/26 09:14:32;;;;;;;3.17;1.20;;;9.50;53.10;;;;;;4989918;28;20057;-71
2022/02/26 09:16:59;;;;;;;3.75;1.20;;;9.70;52.50;;;;;;4992956;28;20136;-72
2022/02/26 09:19:27;;;;;;;5.43;1.80;;;9.70;52.30;;;;;;4994327;28;20112;-71
2022/02/26 09:21:55;;;;;;;3.42;1.17;;;9.80;52.30;;;;;;4991596;28;20050;-72
2022/02/26 09:24:23;;;;;;;3.72;1.55;;;9.80;51.30;;;;;;4991241;28;20065;-72
2022/02/26 09:26:50;;;;;;;4.65;1.75;;;9.90;51.60;;;;;;4992372;28;20805;-72
2022/02/26 09:29:17;;;;;;;2.42;1.30;;;10.00;51.50;;;;;;4988331;28;21258;-71
2022/02/26 09:31:44;;;;;;;3.10;0.90;;;10.00;50.70;;;;;;4991271;28;20546;-71
2022/02/26 09:34:11;;;;;;;3.28;1.38;;;10.20;50.90;;;;;;4989617;28;20497;-71
2022/02/26 09:36:38;;;;;;;3.50;1.20;;;10.20;50.10;;;;;;4992225;28;20502;-71
2022/02/26 09:39:06;;;;;;;3.13;1.45;;;10.20;50.00;;;;;;4992207;28;20124;-72
2022/02/26 09:41:33;;;;;;;3.33;1.52;;;10.30;49.60;;;;;;4972965;28;20045;-72
2022/02/26 09:44:01;;;;;;;2.85;1.55;;;10.50;50.00;;;;;;4992729;28;20138;-71
2022/02/26 09:46:29;;;;;;;3.60;1.40;;;10.50;49.20;;;;;;5007210;28;20054;-72
2022/02/26 09:48:56;;;;;;;3.78;1.20;;;10.70;49.30;;;;;;4987886;28;20133;-71
2022/02/26 09:51:23;;;;;;;3.72;1.27;;;10.80;48.90;;;;;;4992716;28;20049;-72
2022/02/26 09:53:51;;;;;;;4.13;1.20;;;10.80;48.70;;;;;;4991152;28;20042;-72
2022/02/26 09:56:24;;;;;;;2.65;1.05;;;10.90;48.80;;;;;;4993463;28;20104;-72
2022/02/26 09:58:51;;;;;;;6.05;1.42;;;11.00;48.60;;;;;;4989632;28;20073;-73
2022/02/26 10:01:19;;;;;;;3.90;1.30;;;10.90;48.00;;;;;;4987176;28;20177;-74
2022/02/26 10:03:46;;;;;;;2.85;1.33;;;11.10;48.20;;;;;;4987849;28;20910;-73
2022/02/26 10:06:21;;;;;;;5.00;1.38;;;11.10;47.50;;;;;;4989158;28;20449;-73
2022/02/26 10:08:48;;;;;;;3.63;1.00;;;11.20;47.00;;;;;;4973190;28;20142;-74
2022/02/26 10:11:31;;;;;;;2.75;1.02;;;11.30;47.00;;;;;;4994822;28;20053;-73
2022/02/26 10:14:03;;;;;;;2.85;1.05;;;11.30;46.60;;;;;;4995743;28;20129;-73
2022/02/26 10:16:45;;;;;;;4.50;1.33;;;11.40;46.30;;;;;;5010897;28;20081;-71
2022/02/26 10:19:26;;;;;;;7.15;2.03;;;11.50;45.90;;;;;;5010420;28;20800;-71
2022/02/26 10:22:00;;;;;;;5.03;2.22;;;11.60;46.10;;;;;;4991617;28;20042;-71
2022/02/26 10:24:29;;;;;;;3.30;1.05;;;11.60;46.20;;;;;;4987757;28;20065;-71
2022/02/26 10:27:05;;;;;;;1.88;0.82;;;11.70;45.80;;;;;;4992888;28;20037;-71
2022/02/26 10:29:39;;;;;;;3.20;1.00;;;11.80;45.90;;;;;;4994907;28;20864;-71
2022/02/26 10:32:08;;;;;;;3.88;0.95;;;12.00;45.30;;;;;;4989121;28;20046;-72
2022/02/26 10:34:41;;;;;;;5.22;1.23;;;11.80;45.10;;;;;;4989340;28;20052;-71
2022/02/26 10:37:11;;;;;;;1.88;0.57;;;11.80;46.20;;;;;;4974592;28;20053;-72
2022/02/26 10:39:52;;;;;;;3.83;1.02;;;11.90;45.60;;;;;;4990072;28;20489;-71
2022/02/26 10:42:31;;;;;;;3.22;0.63;;;12.00;45.00;;;;;;4989339;28;20053;-71
2022/02/26 10:45:22;;;;;;;3.78;1.40;;;12.10;44.60;;;;;;4972043;28;20050;-71
2022/02/26 10:47:58;;;;;;;6.25;2.25;;;12.20;44.70;;;;;;4991147;28;20045;-71
2022/02/26 10:50:25;;;;;;;5.45;1.67;;;12.20;45.00;;;;;;4987465;28;20046;-71
2022/02/26 10:52:58;;;;;;;5.32;2.17;;;12.30;44.70;;;;;;4989898;28;20038;-71
2022/02/26 10:55:58;;;;;;;3.60;1.42;;;12.40;44.30;;;;;;5008301;28;20044;-71
2022/02/26 10:58:27;;;;;;;6.15;2.85;;;12.30;44.20;;;;;;4993290;28;20723;-72
2022/02/26 11:01:07;;;;;;;6.63;2.47;;;12.50;44.10;;;;;;4990647;28;20046;-72
2022/02/26 11:03:35;;;;;;;2.42;1.08;;;12.50;43.90;;;;;;4990570;28;20788;-74
2022/02/26 11:06:06;;;;;;;4.10;0.90;;;12.50;44.30;;;;;;4996439;28;20046;-74
2022/02/26 11:08:34;;;;;;;2.88;1.10;;;12.50;43.50;;;;;;5010340;28;20039;-75
2022/02/26 11:11:05;;;;;;;2.70;1.10;;;12.40;43.50;;;;;;4994373;28;20879;-75
2022/02/26 11:13:34;;;;;;;5.22;1.75;;;12.30;43.40;;;;;;4975176;28;20505;-75
2022/02/26 11:16:02;;;;;;;2.65;1.10;;;12.50;44.00;;;;;;4994070;28;20073;-75
2022/02/26 11:18:42;;;;;;;2.28;0.90;;;12.60;44.00;;;;;;5010950;28;20815;-74
2022/02/26 11:21:18;;;;;;;3.13;1.25;;;12.70;43.20;;;;;;4994351;28;20065;-74
2022/02/26 11:23:48;;;;;;;4.53;1.13;;;12.90;42.90;;;;;;4992174;28;20100;-74
2022/02/26 11:26:20;;;;;;;3.22;1.50;;;12.90;42.90;;;;;;4991560;28;20065;-74
2022/02/26 11:28:58;;;;;;;4.40;1.45;;;13.10;43.10;;;;;;4989660;28;20513;-71
2022/02/26 11:31:32;;;;;;;4.05;1.52;;;13.10;42.80;;;;;;4986606;28;20758;-71
2022/02/26 11:33:59;;;;;;;4.15;1.30;;;13.20;43.60;;;;;;4987749;28;20057;-71
2022/02/26 11:36:46;;;;;;;2.78;1.50;;;13.20;42.20;;;;;;5001694;28;20042;-72
2022/02/26 11:39:26;;;;;;;3.00;1.17;;;13.30;42.30;;;;;;4987170;28;20045;-70
2022/02/26 11:42:31;;;;;;;2.95;1.30;;;13.40;42.60;;;;;;4988193;28;20033;-71
2022/02/26 11:45:09;;;;;;;3.95;1.20;;;13.30;42.50;;;;;;4913695;28;20464;-71
2022/02/26 11:47:42;;;;;;;4.38;1.17;;;13.40;42.40;;;;;;4937378;28;20111;-71
2022/02/26 11:50:09;;;;;;;;;;;13.30;41.80;;;;;;4968667;28;20109;-71
2022/02/26 11:52:45;;;;;;;3.50;0.90;;;13.40;41.80;;;;;;4990127;28;19929;-71
2022/02/26 11:55:39;;;;;;;3.45;0.95;;;13.40;41.20;;;;;;4986444;28;20054;-71
2022/02/26 11:58:14;;;;;;;5.88;1.58;;;13.20;42.10;;;;;;4969770;28;20061;-71
2022/02/26 12:00:53;;;;;;;2.85;1.40;;;13.10;41.70;;;;;;4986655;28;20050;-70
2022/02/26 12:03:30;;;;;;;2.15;0.80;;;13.00;42.30;;;;;;4989636;28;20769;-71
2022/02/26 12:06:21;;;;;;;1.73;0.95;;;12.70;42.70;;;;;;4989417;28;20046;-71
2022/02/26 12:08:57;;;;;;;4.65;1.60;;;12.50;44.10;;;;;;4976390;28;20047;-71
2022/02/26 12:11:46;;;;;;;4.18;1.45;;;12.50;43.10;;;;;;5004753;28;20041;-72
2022/02/26 12:14:16;;;;;;;2.25;1.10;;;12.70;43.90;;;;;;4985451;28;20699;-72
2022/02/26 12:16:51;;;;;;;3.90;1.73;;;12.90;43.20;;;;;;4991183;28;20603;-71
2022/02/26 12:19:24;;;;;;;2.58;1.20;;;13.10;43.10;;;;;;5009090;28;20050;-72
2022/02/26 12:21:57;;;;;;;2.10;0.70;;;13.00;42.40;;;;;;4991328;28;20046;-71
2022/02/26 12:24:30;;;;;;;1.75;0.85;;;12.90;42.20;;;;;;4989421;28;20704;-71
2022/02/26 12:27:08;;;;;;;2.33;1.02;;;12.90;42.20;;;;;;4989615;28;20529;-71
2022/02/26 12:29:38;;;;;;;1.67;0.60;;;13.10;42.70;;;;;;4974437;28;20520;-71
2022/02/26 12:32:11;;;;;;;2.90;0.80;;;13.50;41.60;;;;;;4993439;28;20057;-72
2022/02/26 12:34:48;;;;;;;2.20;0.70;;;13.70;40.80;;;;;;4991976;28;20038;-72
2022/02/26 12:37:28;;;;;;;1.45;0.70;;;13.80;40.60;;;;;;4992507;28;20046;-72
2022/02/26 12:40:07;;;;;;;3.78;0.65;;;13.60;40.40;;;;;;5004911;28;21415;-72
2022/02/26 12:42:43;;;;;;;2.15;0.65;;;13.60;40.40;;;;;;4991458;28;20038;-72
2022/02/26 12:45:12;;;;;;;3.70;0.77;;;13.80;40.30;;;;;;4974600;28;20060;-72
2022/02/26 12:47:40;;;;;;;4.35;1.35;;;13.90;40.30;;;;;;4987897;28;20044;-72
2022/02/26 12:50:11;;;;;;;2.30;0.95;;;13.60;39.90;;;;;;4993071;28;20038;-72
2022/02/26 12:52:39;;;;;;;2.25;0.77;;;13.40;40.30;;;;;;4989804;28;20410;-72
2022/02/26 12:55:17;;;;;;;3.70;1.20;;;13.40;40.50;;;;;;4974616;28;20493;-72
2022/02/26 12:57:48;;;;;;;3.10;0.90;;;13.40;41.10;;;;;;4995373;28;20366;-72
2022/02/26 13:00:48;;;;;;;3.28;1.02;;;13.10;41.20;;;;;;4994903;28;20053;-71
2022/02/26 13:03:21;;;;;;;3.47;0.85;;;13.00;41.60;;;;;;4981384;28;20045;-72
2022/02/26 13:05:48;;;;;;;3.63;1.15;;;13.00;40.80;;;;;;4991313;28;20042;-72